Time;durP1;ratioP1;P1;durP2;ratioP2;P2;SDS_P1;SDS_P2;PMS_P1;PMS_P2;Temp;Humidity;BMP_temperature;BMP_pressure;BME280_temperature;BME280_humidity;BME280_pressure;Samples;Min_cycle;Max_cycle;Signal;HPM_P1;HPM_P2
2021/09/07 00:02:15;;;;;;;9.30;6.30;;;;;;;15.54;55.57;100906.09;5014921;27;101099;-83
2021/09/07 00:04:40;;;;;;;13.70;6.70;;;;;;;15.63;55.11;100913.59;5012785;27;100158;-83
2021/09/07 00:07:06;;;;;;;10.63;6.47;;;;;;;15.60;55.29;100911.09;5038902;27;98149;-82
2021/09/07 00:09:31;;;;;;;12.45;6.22;;;;;;;15.58;55.21;100903.22;5051024;27;96893;-82
2021/09/07 00:11:57;;;;;;;12.57;7.10;;;;;;;15.63;55.48;100908.31;5020102;27;101326;-83
2021/09/07 00:14:23;;;;;;;10.65;6.45;;;;;;;15.48;55.66;100909.00;5047431;27;98798;-83
2021/09/07 00:16:50;;;;;;;10.00;6.55;;;;;;;15.42;55.98;100894.28;5045550;27;96769;-82
2021/09/07 00:19:17;;;;;;;11.68;7.28;;;;;;;15.50;56.13;100907.13;5031827;27;96869;-82
2021/09/07 00:21:42;;;;;;;12.90;7.03;;;;;;;15.52;56.42;100908.78;5033198;27;97892;-83
2021/09/07 00:24:08;;;;;;;15.55;6.15;;;;;;;15.64;55.54;100907.38;5047162;27;98502;-83
2021/09/07 00:26:33;;;;;;;11.30;6.65;;;;;;;15.55;55.72;100902.50;5049999;27;96813;-82
2021/09/07 00:28:59;;;;;;;9.07;6.40;;;;;;;15.39;57.24;100902.34;5053049;27;96825;-82
2021/09/07 00:31:25;;;;;;;16.63;7.25;;;;;;;15.34;57.17;100891.09;5025645;27;101019;-82
2021/09/07 00:33:50;;;;;;;10.50;7.50;;;;;;;15.37;56.89;100902.41;5044276;27;97963;-82
2021/09/07 00:36:16;;;;;;;14.25;7.28;;;;;;;15.37;56.75;100893.59;5034854;27;96898;-82
2021/09/07 00:38:42;;;;;;;10.43;6.15;;;;;;;15.53;56.69;100907.00;5054714;27;96853;-82
2021/09/07 00:41:07;;;;;;;9.15;6.90;;;;;;;15.30;56.99;100898.31;5044877;27;97572;-82
2021/09/07 00:43:33;;;;;;;11.13;6.75;;;;;;;15.33;56.54;100886.72;5037206;27;101330;-82
2021/09/07 00:45:59;;;;;;;9.65;6.25;;;;;;;15.37;56.87;100906.84;5051336;27;97932;-82
2021/09/07 00:48:24;;;;;;;8.02;6.43;;;;;;;15.47;56.83;100907.28;5037079;27;97271;-82
2021/09/07 00:50:50;;;;;;;8.85;6.30;;;;;;;15.40;57.24;100912.84;5028264;27;101269;-83
2021/09/07 00:53:16;;;;;;;11.35;6.95;;;;;;;15.54;56.40;100891.06;5036696;27;97788;-83
2021/09/07 00:55:45;;;;;;;11.00;6.55;;;;;;;15.36;57.15;100884.81;5036841;27;98250;-82
2021/09/07 00:58:12;;;;;;;9.73;6.68;;;;;;;15.53;56.73;100876.13;5016127;27;96825;-83
2021/09/07 01:00:38;;;;;;;9.50;6.53;;;;;;;15.35;57.14;100877.78;5032097;27;98129;-83
2021/09/07 01:03:04;;;;;;;13.25;6.70;;;;;;;15.32;57.42;100885.88;5013866;27;101578;-83
2021/09/07 01:05:32;;;;;;;13.20;6.93;;;;;;;15.32;57.86;100890.31;5033457;27;97308;-83
2021/09/07 01:08:00;;;;;;;12.10;6.40;;;;;;;15.28;57.33;100879.00;5035913;27;96853;-82
2021/09/07 01:10:28;;;;;;;11.60;6.70;;;;;;;15.35;57.38;100887.53;5006474;27;101236;-83
2021/09/07 01:12:55;;;;;;;9.38;6.60;;;;;;;15.23;57.72;100872.22;5020954;27;100212;-83
2021/09/07 01:15:22;;;;;;;15.02;7.57;;;;;;;15.29;58.06;100882.50;5038281;27;98233;-83
2021/09/07 01:17:48;;;;;;;10.48;6.53;;;;;;;15.29;57.83;100872.78;5034968;27;97344;-82
2021/09/07 01:20:15;;;;;;;8.23;5.72;;;;;;;15.33;58.12;100876.13;5053332;27;101549;-82
2021/09/07 01:22:40;;;;;;;15.98;7.07;;;;;;;15.40;57.74;100875.81;5023401;27;100898;-83
2021/09/07 01:25:06;;;;;;;13.20;7.13;;;;;;;15.48;57.72;100871.97;5054357;27;97877;-83
2021/09/07 01:27:32;;;;;;;13.35;7.18;;;;;;;15.29;58.22;100878.06;5023279;27;96808;-82
2021/09/07 01:29:58;;;;;;;10.05;6.60;;;;;;;15.24;58.39;100876.56;5034176;27;101614;-82
2021/09/07 01:32:25;;;;;;;11.60;7.35;;;;;;;15.31;58.45;100875.38;5054418;27;98366;-82
2021/09/07 01:34:51;;;;;;;8.52;6.00;;;;;;;15.25;58.71;100878.28;5054969;27;96810;-83
2021/09/07 01:37:16;;;;;;;9.85;6.68;;;;;;;15.14;59.09;100874.31;5039031;27;96803;-83
2021/09/07 01:39:42;;;;;;;10.18;6.50;;;;;;;15.20;59.54;100877.63;5033895;27;97812;-82
2021/09/07 01:42:08;;;;;;;10.95;6.57;;;;;;;15.10;59.79;100877.19;5025299;27;101562;-83
2021/09/07 01:44:33;;;;;;;10.52;6.97;;;;;;;15.06;59.92;100870.31;5034607;27;98316;-83
2021/09/07 01:47:00;;;;;;;13.02;6.82;;;;;;;15.07;59.72;100867.59;5032718;27;96863;-83
2021/09/07 01:49:25;;;;;;;8.20;6.35;;;;;;;15.06;60.25;100880.88;5037896;27;101305;-82
2021/09/07 01:51:51;;;;;;;12.25;6.55;;;;;;;15.05;60.08;100873.88;5057357;27;97356;-83
2021/09/07 01:54:17;;;;;;;9.75;7.03;;;;;;;15.00;60.18;100873.22;5056815;27;98055;-83
2021/09/07 01:56:43;;;;;;;11.25;6.78;;;;;;;14.98;60.54;100877.69;5040531;27;97170;-82
2021/09/07 01:59:10;;;;;;;10.63;7.45;;;;;;;14.94;60.41;100872.56;5053119;27;98498;-82
2021/09/07 02:01:36;;;;;;;11.63;7.20;;;;;;;15.02;59.71;100877.50;5022423;27;101219;-82
2021/09/07 02:04:02;;;;;;;13.20;7.38;;;;;;;14.99;59.86;100869.72;5038125;27;96912;-82
2021/09/07 02:06:32;;;;;;;12.30;6.88;;;;;;;14.97;59.74;100868.91;5036838;27;96903;-83
2021/09/07 02:08:57;;;;;;;11.88;7.03;;;;;;;14.97;60.07;100882.13;5056602;27;98268;-83
2021/09/07 02:11:23;;;;;;;10.15;6.97;;;;;;;14.94;60.49;100879.63;5038616;27;101505;-82
2021/09/07 02:13:50;;;;;;;10.32;7.03;;;;;;;15.02;60.38;100876.66;5019375;27;97103;-82
2021/09/07 02:16:17;;;;;;;11.10;7.45;;;;;;;14.99;59.89;100882.94;5029804;27;97495;-82
2021/09/07 02:18:42;;;;;;;10.65;7.03;;;;;;;14.94;60.59;100871.69;5037166;27;101446;-83
2021/09/07 02:21:08;;;;;;;12.27;6.32;;;;;;;14.97;60.61;100873.34;5015043;27;101377;-82
2021/09/07 02:23:34;;;;;;;10.20;6.82;;;;;;;14.95;61.39;100870.75;5056423;27;96845;-82
2021/09/07 02:25:59;;;;;;;12.65;7.90;;;;;;;14.88;61.51;100872.81;5040448;27;96876;-83
2021/09/07 02:28:26;;;;;;;11.98;7.40;;;;;;;14.97;61.31;100871.56;5054575;27;97799;-83
2021/09/07 02:30:52;;;;;;;13.15;6.65;;;;;;;15.02;61.33;100866.94;5057019;27;98029;-83
2021/09/07 02:33:18;;;;;;;10.95;6.63;;;;;;;14.94;61.16;100861.97;5055827;27;97247;-82
2021/09/07 02:35:43;;;;;;;8.93;6.57;;;;;;;14.91;61.38;100848.91;5039992;27;97355;-82
2021/09/07 02:38:10;;;;;;;10.27;6.95;;;;;;;14.94;61.58;100854.03;5035352;27;101694;-83
2021/09/07 02:40:36;;;;;;;12.18;7.13;;;;;;;14.98;61.63;100854.78;5053000;27;101252;-82
2021/09/07 02:43:02;;;;;;;19.98;7.75;;;;;;;15.05;61.48;100858.03;5057736;27;97990;-83
2021/09/07 02:45:27;;;;;;;11.07;7.25;;;;;;;15.02;61.23;100852.88;5036679;27;96782;-82
2021/09/07 02:47:54;;;;;;;13.35;7.40;;;;;;;14.85;61.63;100832.47;5033087;27;100928;-82
2021/09/07 02:50:22;;;;;;;11.68;7.10;;;;;;;14.90;61.73;100843.69;5049529;27;98148;-82
2021/09/07 02:52:48;;;;;;;13.20;7.20;;;;;;;15.01;61.13;100854.66;5039487;27;96716;-82
2021/09/07 02:55:13;;;;;;;9.88;7.10;;;;;;;14.84;61.48;100821.03;5052854;27;97280;-82
2021/09/07 02:57:39;;;;;;;10.60;6.95;;;;;;;14.86;61.92;100844.72;5036261;27;101694;-82
2021/09/07 03:00:05;;;;;;;14.02;7.07;;;;;;;14.93;61.75;100847.06;5052257;27;97963;-82
2021/09/07 03:02:31;;;;;;;13.57;7.13;;;;;;;14.89;62.55;100852.53;5038158;27;97445;-82
2021/09/07 03:04:56;;;;;;;14.55;7.95;;;;;;;14.83;62.43;100850.16;5051930;27;96834;-82
2021/09/07 03:07:22;;;;;;;9.18;6.55;;;;;;;14.69;62.57;100841.06;5046942;27;98376;-82
2021/09/07 03:09:48;;;;;;;10.63;6.85;;;;;;;14.71;63.02;100839.19;5044719;27;101626;-82
2021/09/07 03:12:14;;;;;;;8.77;6.97;;;;;;;14.78;62.72;100850.38;5032698;27;96831;-82
2021/09/07 03:14:42;;;;;;;10.25;6.95;;;;;;;14.80;62.78;100853.78;5030875;27;96964;-82
2021/09/07 03:17:07;;;;;;;11.18;7.30;;;;;;;14.73;62.50;100846.22;5035490;27;100719;-82
2021/09/07 03:19:34;;;;;;;11.23;7.65;;;;;;;14.71;62.94;100848.91;5018410;27;101108;-82
2021/09/07 03:21:59;;;;;;;12.93;7.47;;;;;;;14.71;62.75;100851.53;5028168;27;98750;-82
2021/09/07 03:24:26;;;;;;;13.15;6.85;;;;;;;14.74;62.77;100845.28;5051561;27;96935;-82
2021/09/07 03:26:52;;;;;;;9.85;7.22;;;;;;;14.67;62.87;100824.41;5032576;28;101582;-81
2021/09/07 03:29:18;;;;;;;11.48;7.40;;;;;;;14.67;62.54;100836.75;5017816;27;101084;-82
2021/09/07 03:31:44;;;;;;;14.20;6.60;;;;;;;14.69;62.82;100848.97;5025598;28;97020;-82
2021/09/07 03:34:10;;;;;;;12.13;7.10;;;;;;;14.56;63.40;100837.19;5030788;28;96863;-82
2021/09/07 03:36:37;;;;;;;15.23;7.80;;;;;;;14.64;63.42;100834.25;5006568;28;101408;-82
2021/09/07 03:39:04;;;;;;;12.98;8.05;;;;;;;14.63;62.88;100825.47;5024024;27;99229;-83
2021/09/07 03:41:29;;;;;;;15.07;7.30;;;;;;;14.67;62.98;100847.31;5025956;27;98133;-83
2021/09/07 03:43:55;;;;;;;12.93;7.22;;;;;;;14.69;63.66;100854.25;5039325;27;96864;-82
2021/09/07 03:46:20;;;;;;;16.50;7.90;;;;;;;14.75;63.33;100853.16;5020212;27;101764;-82
2021/09/07 03:48:46;;;;;;;13.73;8.02;;;;;;;14.74;63.54;100854.06;5055787;27;97533;-82
2021/09/07 03:51:12;;;;;;;13.10;8.05;;;;;;;14.73;63.70;100857.63;5042551;27;97605;-82
2021/09/07 03:53:39;;;;;;;10.98;7.50;;;;;;;14.62;64.28;100844.00;5031263;27;97647;-82
2021/09/07 03:56:05;;;;;;;10.07;7.57;;;;;;;14.69;64.04;100850.78;5021738;27;101479;-82
2021/09/07 03:58:31;;;;;;;11.52;7.03;;;;;;;14.61;63.66;100848.44;5029524;27;98521;-83
2021/09/07 04:00:57;;;;;;;11.20;8.05;;;;;;;14.71;63.85;100854.19;5032284;27;97484;-82
2021/09/07 04:03:23;;;;;;;14.50;7.55;;;;;;;14.69;63.74;100843.69;5050447;27;100527;-82
2021/09/07 04:05:49;;;;;;;15.23;7.70;;;;;;;14.70;64.00;100852.47;5038201;27;101130;-83
2021/09/07 04:08:15;;;;;;;12.32;7.57;;;;;;;14.74;64.09;100855.84;5039833;27;101638;-81
2021/09/07 04:10:43;;;;;;;10.93;7.30;;;;;;;14.64;64.61;100852.75;5042242;27;96813;-82
2021/09/07 04:13:08;;;;;;;11.80;7.70;;;;;;;14.62;64.58;100863.34;5058257;27;97424;-83
2021/09/07 04:15:34;;;;;;;16.02;8.27;;;;;;;14.68;64.20;100859.59;5054560;27;97946;-83
2021/09/07 04:17:59;;;;;;;11.68;7.50;;;;;;;14.68;64.46;100864.88;5032695;27;100881;-82
2021/09/07 04:20:26;;;;;;;14.60;7.80;;;;;;;14.58;64.23;100845.94;5040301;27;96868;-82
2021/09/07 04:22:52;;;;;;;16.63;8.65;;;;;;;14.65;64.89;100857.94;5059326;27;97255;-82
2021/09/07 04:25:17;;;;;;;16.10;8.45;;;;;;;14.60;64.86;100854.66;5049086;27;97903;-82
2021/09/07 04:27:43;;;;;;;14.43;7.93;;;;;;;14.59;65.24;100846.78;5041240;27;101528;-82
2021/09/07 04:30:09;;;;;;;23.92;7.88;;;;;;;14.53;64.97;100841.75;5034089;27;97892;-82
2021/09/07 04:32:35;;;;;;;16.55;7.80;;;;;;;14.58;64.89;100845.94;5068975;27;97583;-81
2021/09/07 04:35:01;;;;;;;17.63;7.60;;;;;;;14.62;65.00;100859.88;5033502;27;101613;-82
2021/09/07 04:37:27;;;;;;;24.38;9.00;;;;;;;14.61;65.01;100861.66;5017454;27;101431;-82
2021/09/07 04:39:53;;;;;;;18.17;8.23;;;;;;;14.59;65.34;100855.56;5070965;27;97059;-82
2021/09/07 04:42:19;;;;;;;16.85;7.97;;;;;;;14.61;64.93;100859.00;5036250;27;96896;-83
2021/09/07 04:44:45;;;;;;;21.75;8.45;;;;;;;14.74;64.84;100866.41;5018520;27;101237;-81
2021/09/07 04:47:11;;;;;;;30.15;8.85;;;;;;;14.81;64.33;100870.53;5050998;27;98354;-82
2021/09/07 04:49:37;;;;;;;21.67;8.43;;;;;;;14.74;65.09;100874.34;5035003;27;96853;-81
2021/09/07 04:52:03;;;;;;;27.20;8.57;;;;;;;14.73;65.61;100877.91;5036502;27;96844;-82
2021/09/07 04:54:29;;;;;;;23.58;9.35;;;;;;;14.78;64.96;100878.59;5033104;27;101115;-82
2021/09/07 04:56:54;;;;;;;24.88;9.18;;;;;;;14.77;65.10;100879.50;5035981;27;98089;-82
2021/09/07 04:59:20;;;;;;;24.92;8.63;;;;;;;14.86;65.11;100892.31;5032715;27;97549;-82
2021/09/07 05:01:46;;;;;;;18.65;8.32;;;;;;;14.83;65.66;100889.78;5051851;27;98099;-82
2021/09/07 05:04:11;;;;;;;37.53;10.02;;;;;;;14.79;65.65;100889.06;5030669;27;101316;-82
2021/09/07 05:06:37;;;;;;;38.25;9.45;;;;;;;14.73;65.35;100877.91;5034156;27;98132;-81
2021/09/07 05:09:02;;;;;;;18.60;9.43;;;;;;;14.85;65.54;100886.16;5032235;27;96934;-81
2021/09/07 05:11:28;;;;;;;28.20;10.98;;;;;;;14.98;65.22;100894.44;5016574;27;97589;-84
2021/09/07 05:13:53;;;;;;;22.10;9.30;;;;;;;15.06;65.11;100889.66;5017588;27;102484;-84
2021/09/07 05:16:19;;;;;;;24.38;9.18;;;;;;;15.11;65.00;100895.63;5016511;27;101643;-87
2021/09/07 05:18:44;;;;;;;23.33;9.40;;;;;;;15.08;65.23;100894.91;5035897;27;97845;-87
2021/09/07 05:21:10;;;;;;;20.05;8.93;;;;;;;15.16;64.96;100898.91;5069917;27;97385;-83
2021/09/07 05:23:37;;;;;;;22.83;8.55;;;;;;;15.26;64.58;100895.88;5031714;27;101087;-85
2021/09/07 05:26:03;;;;;;;23.33;10.40;;;;;;;15.45;63.82;100901.22;5053956;27;98280;-84
2021/09/07 05:28:28;;;;;;;24.13;9.80;;;;;;;15.35;64.44;100903.38;5021568;27;97275;-85
2021/09/07 05:30:54;;;;;;;25.30;8.95;;;;;;;15.55;63.33;100889.28;5046977;27;97042;-78
2021/09/07 05:33:20;;;;;;;15.77;8.05;;;;;;;15.77;62.67;100891.81;5036834;27;101477;-80
2021/09/07 05:35:45;;;;;;;14.05;9.07;;;;;;;15.89;62.22;100888.59;5022783;27;101699;-78
2021/09/07 05:38:11;;;;;;;22.75;9.43;;;;;;;16.01;61.89;100884.50;5050434;27;97567;-84
2021/09/07 05:40:36;;;;;;;18.33;9.63;;;;;;;16.25;61.30;100885.13;5037610;27;97303;-85
2021/09/07 05:43:02;;;;;;;22.80;9.10;;;;;;;16.47;61.26;100892.88;5050713;27;98125;-83
2021/09/07 05:45:27;;;;;;;16.30;9.20;;;;;;;16.81;60.91;100896.50;5050975;27;98430;-87
2021/09/07 05:47:53;;;;;;;17.77;9.43;;;;;;;17.08;59.93;100892.44;5040001;27;97873;-85
2021/09/07 05:50:18;;;;;;;18.88;10.10;;;;;;;17.38;59.45;100899.72;5016225;27;97557;-82
2021/09/07 05:52:45;;;;;;;24.33;10.73;;;;;;;17.33;59.46;100891.16;5047708;27;98457;-84
2021/09/07 05:55:11;;;;;;;17.25;11.30;;;;;;;17.34;59.55;100900.84;5027744;27;97590;-86
2021/09/07 05:57:37;;;;;;;19.95;10.43;;;;;;;17.37;59.87;100890.06;5047783;27;99248;-85
2021/09/07 06:00:04;;;;;;;15.38;10.55;;;;;;;17.54;60.30;100899.75;5034027;27;97273;-85
2021/09/07 06:02:37;;;;;;;19.42;10.20;;;;;;;17.78;58.95;100897.63;5030851;27;97948;-84
2021/09/07 06:05:04;;;;;;;17.70;10.43;;;;;;;17.92;59.04;100904.78;5031286;27;101537;-83
2021/09/07 06:07:30;;;;;;;19.02;10.63;;;;;;;18.13;58.56;100900.97;5033416;27;96838;-84
2021/09/07 06:09:55;;;;;;;23.95;11.35;;;;;;;18.57;57.45;100904.66;5038307;27;97671;-85
2021/09/07 06:12:21;;;;;;;18.38;11.23;;;;;;;18.73;57.62;100906.38;5026770;27;99917;-84
2021/09/07 06:14:46;;;;;;;17.98;11.27;;;;;;;18.98;56.98;100902.25;5036030;27;101023;-85
2021/09/07 06:17:12;;;;;;;24.83;11.70;;;;;;;19.42;56.43;100902.19;5051911;27;97225;-83
2021/09/07 06:19:37;;;;;;;20.02;11.15;;;;;;;19.86;55.36;100903.91;5016298;27;97170;-85
2021/09/07 06:22:03;;;;;;;19.40;11.65;;;;;;;20.04;54.81;100904.56;5068066;27;98913;-83
2021/09/07 06:24:29;;;;;;;29.33;11.88;;;;;;;20.92;53.10;100901.47;5046477;27;101968;-82
2021/09/07 06:26:54;;;;;;;20.55;12.73;;;;;;;21.30;52.42;100904.16;5048839;27;97362;-84
2021/09/07 06:29:20;;;;;;;21.02;13.57;;;;;;;21.53;52.00;100909.75;5018633;27;98756;-85
2021/09/07 06:31:45;;;;;;;19.85;11.90;;;;;;;21.45;51.74;100905.78;5012472;27;101195;-86
2021/09/07 06:34:11;;;;;;;16.17;11.90;;;;;;;21.37;51.97;100893.94;5031305;27;101206;-85
2021/09/07 06:36:37;;;;;;;17.33;11.77;;;;;;;21.30;52.51;100904.16;5039267;27;96714;-86
2021/09/07 06:39:03;;;;;;;20.35;11.82;;;;;;;21.23;52.83;100902.88;5025695;27;97030;-85
2021/09/07 06:41:28;;;;;;;18.30;13.05;;;;;;;21.38;52.71;100903.63;5026843;27;97632;-85
2021/09/07 06:43:54;;;;;;;18.33;12.18;;;;;;;21.51;52.45;100903.66;5024555;27;101156;-85
2021/09/07 06:46:19;;;;;;;22.58;11.80;;;;;;;21.44;52.51;100913.91;5038971;27;96748;-86
2021/09/07 06:48:45;;;;;;;14.77;11.00;;;;;;;21.67;51.87;100906.91;5021743;27;96881;-85
2021/09/07 06:51:10;;;;;;;22.13;11.45;;;;;;;22.01;51.74;100909.84;5031796;27;97515;-84
2021/09/07 06:53:36;;;;;;;16.52;11.90;;;;;;;22.55;50.42;100914.81;5024929;27;100840;-84
2021/09/07 06:56:01;;;;;;;17.90;11.70;;;;;;;22.03;51.59;100906.09;5024887;27;97330;-84
2021/09/07 06:58:27;;;;;;;17.50;10.05;;;;;;;22.16;51.73;100924.75;5037725;27;97146;-84
2021/09/07 07:00:52;;;;;;;13.27;11.18;;;;;;;22.96;49.39;100910.84;5029435;27;98689;-77
2021/09/07 07:03:18;;;;;;;16.52;11.45;;;;;;;22.75;49.80;100924.00;5033168;27;101438;-77
2021/09/07 07:05:44;;;;;;;18.05;11.65;;;;;;;22.62;50.56;100928.56;5017819;27;97478;-78
2021/09/07 07:08:10;;;;;;;17.75;11.38;;;;;;;22.50;50.60;100925.00;5028238;27;97074;-78
2021/09/07 07:10:35;;;;;;;17.67;11.70;;;;;;;22.47;50.24;100926.06;5029119;27;101483;-78
2021/09/07 07:13:01;;;;;;;17.83;10.90;;;;;;;22.57;50.34;100928.91;5021282;27;101403;-78
2021/09/07 07:15:26;;;;;;;17.33;12.32;;;;;;;22.73;50.22;100932.16;5007420;27;97973;-81
2021/09/07 07:17:52;;;;;;;16.02;12.55;;;;;;;23.10;49.28;100924.03;5022794;27;97374;-81
2021/09/07 07:20:17;;;;;;;14.10;11.82;;;;;;;22.80;49.95;100937.88;5011556;27;101104;-80
2021/09/07 07:22:43;;;;;;;16.27;12.15;;;;;;;22.52;51.03;100934.59;5051628;27;98113;-82
2021/09/07 07:25:09;;;;;;;14.95;11.70;;;;;;;22.51;50.62;100930.22;5013380;27;97241;-80
2021/09/07 07:27:39;;;;;;;14.77;12.45;;;;;;;23.39;48.79;100939.66;5037054;27;97072;-81
2021/09/07 07:30:06;;;;;;;17.67;12.52;;;;;;;24.05;47.44;100937.09;5047044;27;98495;-79
2021/09/07 07:32:31;;;;;;;12.98;11.68;;;;;;;26.33;43.59;100935.53;5034482;27;101112;-80
2021/09/07 07:34:57;;;;;;;19.10;13.07;;;;;;;27.95;40.19;100922.94;5029708;27;96998;-81
2021/09/07 07:37:22;;;;;;;13.70;11.88;;;;;;;25.25;44.79;100928.88;5025544;27;97496;-81
2021/09/07 07:39:48;;;;;;;15.07;12.02;;;;;;;24.06;47.13;100938.84;5017361;27;101710;-79
2021/09/07 07:42:13;;;;;;;14.80;12.20;;;;;;;23.59;48.25;100938.06;5024221;27;101086;-81
2021/09/07 07:44:39;;;;;;;15.20;12.55;;;;;;;23.46;48.69;100939.03;5032707;27;96755;-81
2021/09/07 07:47:04;;;;;;;13.38;11.98;;;;;;;23.68;48.23;100950.75;5035640;27;96932;-81
2021/09/07 07:49:30;;;;;;;15.73;11.27;;;;;;;24.39;47.57;100945.94;5004690;27;101227;-80
2021/09/07 07:51:56;;;;;;;14.73;12.00;;;;;;;24.07;48.55;100944.06;5029073;27;97949;-81
2021/09/07 07:54:21;;;;;;;15.18;13.07;;;;;;;23.32;49.51;100946.44;5044276;27;98363;-80
2021/09/07 07:56:47;;;;;;;20.55;12.60;;;;;;;22.83;50.95;100941.19;5052492;27;97241;-80
2021/09/07 07:59:12;;;;;;;17.40;12.77;;;;;;;22.76;51.61;100950.63;5029093;27;101507;-80
2021/09/07 08:01:38;;;;;;;19.90;13.15;;;;;;;22.62;52.00;100942.78;5026202;27;102982;-79
2021/09/07 08:04:04;;;;;;;20.30;13.40;;;;;;;22.55;52.05;100945.09;5041523;27;97684;-80
2021/09/07 08:06:29;;;;;;;15.55;12.93;;;;;;;22.69;51.62;100949.41;5022291;27;96926;-79
2021/09/07 08:08:55;;;;;;;14.55;12.27;;;;;;;22.91;51.29;100947.78;5028581;27;101118;-79
2021/09/07 08:11:20;;;;;;;13.05;11.65;;;;;;;23.15;50.99;100950.44;5048531;27;97847;-78
2021/09/07 08:13:46;;;;;;;15.35;11.93;;;;;;;23.82;49.73;100947.84;5029736;27;96981;-80
2021/09/07 08:16:11;;;;;;;15.43;12.35;;;;;;;24.83;46.67;100944.94;5055411;27;97106;-81
2021/09/07 08:18:37;;;;;;;20.30;11.98;;;;;;;24.55;47.40;100954.47;5032461;27;98609;-80
2021/09/07 08:21:03;;;;;;;15.25;11.95;;;;;;;24.64;47.29;100952.84;5039285;27;98244;-82
2021/09/07 08:23:28;;;;;;;16.77;12.23;;;;;;;24.75;47.38;100955.47;5013806;27;97357;-82
2021/09/07 08:25:54;;;;;;;16.92;11.82;;;;;;;24.75;47.08;100955.47;5033050;27;97528;-83
2021/09/07 08:28:19;;;;;;;14.85;12.38;;;;;;;24.55;47.60;100948.22;5020208;27;101512;-83
2021/09/07 08:30:46;;;;;;;15.10;11.38;;;;;;;24.54;47.20;100951.91;5033213;27;101567;-82
2021/09/07 08:33:16;;;;;;;13.25;11.85;;;;;;;24.94;46.49;100960.16;5035722;27;97337;-83
2021/09/07 08:35:42;;;;;;;13.20;11.82;;;;;;;25.78;45.01;100956.59;5054137;27;96999;-83
2021/09/07 08:38:08;;;;;;;13.73;11.73;;;;;;;26.12;44.72;100962.50;5054395;27;98335;-82
2021/09/07 08:40:33;;;;;;;11.55;10.35;;;;;;;26.34;44.03;100961.44;5019854;27;102454;-82
2021/09/07 08:43:02;;;;;;;13.23;11.50;;;;;;;27.50;41.13;100952.50;5052779;27;97946;-82
2021/09/07 08:45:28;;;;;;;13.25;10.70;;;;;;;28.21;39.97;100955.44;5052480;27;96918;-82
2021/09/07 08:47:59;;;;;;;19.17;11.35;;;;;;;28.54;39.51;100953.16;5044760;27;97935;-80
2021/09/07 08:50:25;;;;;;;11.35;10.13;;;;;;;27.95;40.12;100960.72;5030544;27;100807;-83
2021/09/07 08:52:54;;;;;;;12.10;10.93;;;;;;;28.67;39.04;100955.44;5038555;27;97680;-84
2021/09/07 08:55:20;;;;;;;12.05;10.88;;;;;;;28.32;39.95;100945.47;5044573;27;97324;-83
2021/09/07 08:57:45;;;;;;;13.45;11.07;;;;;;;28.51;39.15;100961.56;5017943;27;100380;-86
2021/09/07 09:00:11;;;;;;;13.70;11.82;;;;;;;28.53;38.91;100953.28;5030005;27;100866;-82
2021/09/07 09:02:43;;;;;;;12.43;10.65;;;;;;;30.26;35.90;100962.44;5018466;27;97073;-89
2021/09/07 09:05:09;;;;;;;11.43;10.32;;;;;;;31.73;34.74;100957.00;5043414;27;97440;-82
2021/09/07 09:07:36;;;;;;;14.75;11.32;;;;;;;31.42;34.93;100956.09;5016730;27;101343;-80
2021/09/07 09:10:01;;;;;;;12.50;11.30;;;;;;;32.02;33.48;100956.41;5034983;27;101459;-81
2021/09/07 09:12:34;;;;;;;11.63;10.43;;;;;;;31.71;33.46;100960.94;5021809;27;96787;-83
2021/09/07 09:15:00;;;;;;;12.68;10.18;;;;;;;31.79;33.85;100953.59;5022111;27;96992;-81
2021/09/07 09:17:28;;;;;;;11.60;10.40;;;;;;;30.01;35.95;100959.59;5036498;27;101097;-82
2021/09/07 09:20:00;;;;;;;10.65;9.63;;;;;;;29.50;36.08;100958.66;5011611;27;100917;-83
2021/09/07 09:22:52;;;;;;;11.05;9.80;;;;;;;30.41;35.27;100959.94;5034796;27;96945;-85
2021/09/07 09:25:23;;;;;;;12.93;10.15;;;;;;;31.15;34.40;100965.41;5037456;27;97973;-85
2021/09/07 09:27:50;;;;;;;14.13;10.75;;;;;;;30.21;35.76;100965.63;5044665;27;101399;-85
2021/09/07 09:30:16;;;;;;;14.32;11.20;;;;;;;29.30;37.30;100970.69;5053434;27;97966;-84
2021/09/07 09:32:49;;;;;;;14.23;10.73;;;;;;;29.78;36.42;100962.03;5020678;27;96875;-84
2021/09/07 09:35:14;;;;;;;12.57;10.90;;;;;;;30.36;35.64;100957.69;5052066;27;97130;-85
2021/09/07 09:38:00;;;;;;;11.82;10.68;;;;;;;29.46;36.58;100961.84;5036042;27;100734;-85
2021/09/07 09:40:27;;;;;;;11.90;10.70;;;;;;;28.79;38.27;100965.00;5015658;27;102207;-85
2021/09/07 09:42:53;;;;;;;13.23;9.75;;;;;;;28.31;38.87;100966.22;5036768;27;96841;-85
2021/09/07 09:45:27;;;;;;;12.50;9.88;;;;;;;28.01;38.94;100972.75;5036369;27;96929;-84
2021/09/07 09:47:55;;;;;;;11.25;10.02;;;;;;;27.75;39.68;100970.72;5050579;27;98408;-84
2021/09/07 09:50:21;;;;;;;12.70;10.82;;;;;;;27.30;40.49;100965.19;5019435;27;101442;-86
2021/09/07 09:52:47;;;;;;;14.13;12.05;;;;;;;27.01;41.76;100970.56;5036104;27;96852;-84
2021/09/07 09:55:14;;;;;;;13.93;10.85;;;;;;;27.30;41.15;100962.47;5036190;27;97283;-84
2021/09/07 09:57:41;;;;;;;13.57;10.68;;;;;;;28.08;40.72;100968.47;5030856;27;101059;-84
2021/09/07 10:00:16;;;;;;;13.68;10.55;;;;;;;27.70;40.36;100966.78;5026168;27;101798;-84
2021/09/07 10:02:42;;;;;;;15.57;11.35;;;;;;;27.80;40.40;100973.00;5057258;27;97148;-84
2021/09/07 10:05:13;;;;;;;12.43;11.20;;;;;;;27.57;40.98;100958.16;5041449;27;97461;-84
2021/09/07 10:07:39;;;;;;;12.02;10.73;;;;;;;27.30;41.35;100959.78;5030393;27;100399;-83
2021/09/07 10:10:05;;;;;;;12.65;11.30;;;;;;;27.18;41.52;100951.03;5031333;27;101001;-84
2021/09/07 10:12:36;;;;;;;16.40;11.23;;;;;;;27.01;41.91;100955.25;5035026;27;97556;-84
2021/09/07 10:15:08;;;;;;;13.70;11.10;;;;;;;26.81;42.69;100954.41;5017666;27;97111;-85
2021/09/07 10:17:46;;;;;;;14.32;10.57;;;;;;;26.59;42.89;100958.25;5048052;27;98528;-84
2021/09/07 10:20:24;;;;;;;11.57;10.40;;;;;;;26.41;42.95;100965.25;5033032;27;101427;-84
2021/09/07 10:25:59;;;;;;;12.57;10.85;;;;;;;26.09;43.67;100960.09;5009393;28;97047;-82
2021/09/07 10:28:30;;;;;;;15.35;10.57;;;;;;;25.88;43.81;100955.66;5000433;28;101670;-82
2021/09/07 10:30:59;;;;;;;13.23;10.43;;;;;;;25.85;44.17;100965.84;5014149;28;97523;-83
2021/09/07 10:33:51;;;;;;;12.73;11.10;;;;;;;25.80;44.34;100959.97;5012626;27;97141;-84
2021/09/07 10:36:23;;;;;;;13.73;10.70;;;;;;;25.67;44.60;100965.59;5024447;27;97423;-83
2021/09/07 10:38:53;;;;;;;15.57;11.15;;;;;;;25.79;44.92;100975.25;4999796;28;99364;-83
2021/09/07 10:41:34;;;;;;;12.25;10.25;;;;;;;25.66;45.00;100961.19;4995601;28;100983;-83
2021/09/07 10:44:05;;;;;;;17.05;11.20;;;;;;;25.50;45.30;100962.50;5013482;28;97186;-82
2021/09/07 10:46:58;;;;;;;15.45;10.93;;;;;;;25.55;45.12;100966.66;5021566;28;96946;-84
2021/09/07 10:49:32;;;;;;;17.50;11.98;;;;;;;25.59;45.00;100954.66;5021641;27;101243;-83
2021/09/07 10:54:33;;;;;;;13.95;11.35;;;;;;;25.72;44.30;100960.66;5030437;28;97300;-83
2021/09/07 10:57:01;;;;;;;12.38;11.07;;;;;;;25.77;44.78;100960.25;5035742;27;97091;-82
2021/09/07 10:59:56;;;;;;;16.42;11.05;;;;;;;25.65;44.09;100963.00;5038059;27;101881;-82
2021/09/07 11:02:34;;;;;;;16.83;11.45;;;;;;;25.61;43.92;100966.97;5016857;28;101417;-82
2021/09/07 11:05:04;;;;;;;11.60;10.50;;;;;;;25.73;44.32;100963.19;5028779;27;97361;-84
2021/09/07 11:07:32;;;;;;;11.68;10.30;;;;;;;25.69;43.68;100963.63;5018117;27;96947;-83
2021/09/07 11:09:58;;;;;;;18.17;10.13;;;;;;;25.85;43.87;100966.69;5034413;27;101194;-82
2021/09/07 11:12:25;;;;;;;11.63;10.38;;;;;;;25.87;43.14;100964.72;5026421;27;97949;-82
2021/09/07 11:15:09;;;;;;;12.80;10.60;;;;;;;25.87;43.56;100961.19;5023782;27;97452;-82
2021/09/07 11:17:37;;;;;;;13.77;10.52;;;;;;;25.94;43.12;100967.69;5017596;28;97930;-82